Worden, Montana
Current Conditions -  °F | °C
As of 7:53 PM on Monday 26 Jan 2015 (Local Time) from KBIL Reporting Station
Clear Clear  
Wind Chill: 53°   Ceiling: Unl
Heat Index: 53°   Visibility: 10mi
Dew Point: 26°   Wind: 23mph
Humidity: 35%   Direction: 240°WSW
Pressure: 30"   Gusts: NA
Location:  45.96°N, 108.16°W
Report Text: KBIL 270253Z 24020KT 10SM CLR 12/M03 A3000 RMK AO2 PK WND 24029/0243 SLP161 T01171033 56005
Loading
Personal Weather Stations






























Interactive Weather Map New forecast layout! Learn more

10-Day Weather Forecast

Advertisements
Track Severe Weather on mobile